sensor_id;sensor_type;location;lat;lon;timestamp;P1;durP1;ratioP1;P2;durP2;ratioP2
19231;SDS011;9750;48.730;10.294;2023-05-07T00:01:28;3.93;;;2.83;;
19231;SDS011;9750;48.730;10.294;2023-05-07T00:03:56;4.20;;;3.13;;
19231;SDS011;9750;48.730;10.294;2023-05-07T00:06:24;7.27;;;3.10;;
19231;SDS011;9750;48.730;10.294;2023-05-07T00:08:54;4.43;;;3.00;;
19231;SDS011;9750;48.730;10.294;2023-05-07T00:11:22;2.43;;;2.23;;
19231;SDS011;9750;48.730;10.294;2023-05-07T00:13:51;3.83;;;2.40;;
19231;SDS011;9750;48.730;10.294;2023-05-07T00:16:18;4.87;;;2.97;;
19231;SDS011;9750;48.730;10.294;2023-05-07T00:18:45;3.67;;;2.67;;
19231;SDS011;9750;48.730;10.294;2023-05-07T00:21:13;3.80;;;2.60;;
19231;SDS011;9750;48.730;10.294;2023-05-07T00:23:40;4.20;;;2.50;;
19231;SDS011;9750;48.730;10.294;2023-05-07T00:26:07;2.97;;;2.60;;
19231;SDS011;9750;48.730;10.294;2023-05-07T00:28:36;3.30;;;2.67;;
19231;SDS011;9750;48.730;10.294;2023-05-07T00:31:03;3.93;;;3.00;;
19231;SDS011;9750;48.730;10.294;2023-05-07T00:33:30;4.83;;;2.87;;
19231;SDS011;9750;48.730;10.294;2023-05-07T00:35:58;3.10;;;2.80;;
19231;SDS011;9750;48.730;10.294;2023-05-07T00:38:27;3.10;;;2.70;;
19231;SDS011;9750;48.730;10.294;2023-05-07T00:40:54;3.43;;;2.83;;
19231;SDS011;9750;48.730;10.294;2023-05-07T00:43:21;3.70;;;3.03;;
19231;SDS011;9750;48.730;10.294;2023-05-07T00:45:50;5.87;;;3.33;;
19231;SDS011;9750;48.730;10.294;2023-05-07T00:50:50;4.30;;;3.20;;
19231;SDS011;9750;48.730;10.294;2023-05-07T00:53:18;2.87;;;2.67;;
19231;SDS011;9750;48.730;10.294;2023-05-07T00:55:45;3.27;;;2.73;;
19231;SDS011;9750;48.730;10.294;2023-05-07T00:58:13;4.13;;;3.00;;
19231;SDS011;9750;48.730;10.294;2023-05-07T01:00:40;4.90;;;2.70;;
19231;SDS011;9750;48.730;10.294;2023-05-07T01:03:09;5.63;;;2.50;;
19231;SDS011;9750;48.730;10.294;2023-05-07T01:05:36;4.37;;;2.70;;
19231;SDS011;9750;48.730;10.294;2023-05-07T01:08:04;2.77;;;2.57;;
19231;SDS011;9750;48.730;10.294;2023-05-07T01:10:32;2.80;;;2.17;;
19231;SDS011;9750;48.730;10.294;2023-05-07T01:12:59;2.87;;;2.60;;
19231;SDS011;9750;48.730;10.294;2023-05-07T01:15:27;3.10;;;2.80;;
19231;SDS011;9750;48.730;10.294;2023-05-07T01:21:18;3.20;;;2.67;;
19231;SDS011;9750;48.730;10.294;2023-05-07T01:23:53;3.67;;;2.73;;
19231;SDS011;9750;48.730;10.294;2023-05-07T01:26:21;2.77;;;2.30;;
19231;SDS011;9750;48.730;10.294;2023-05-07T01:28:49;3.17;;;2.70;;
19231;SDS011;9750;48.730;10.294;2023-05-07T01:31:16;2.93;;;2.57;;
19231;SDS011;9750;48.730;10.294;2023-05-07T01:33:44;2.90;;;2.30;;
19231;SDS011;9750;48.730;10.294;2023-05-07T01:36:15;3.83;;;2.57;;
19231;SDS011;9750;48.730;10.294;2023-05-07T01:38:43;4.33;;;2.50;;
19231;SDS011;9750;48.730;10.294;2023-05-07T01:41:13;4.53;;;2.70;;
19231;SDS011;9750;48.730;10.294;2023-05-07T01:43:40;2.87;;;2.57;;
19231;SDS011;9750;48.730;10.294;2023-05-07T01:46:08;3.03;;;2.73;;
19231;SDS011;9750;48.730;10.294;2023-05-07T01:48:37;3.50;;;3.20;;
19231;SDS011;9750;48.730;10.294;2023-05-07T01:51:05;6.57;;;4.37;;
19231;SDS011;9750;48.730;10.294;2023-05-07T01:53:35;7.07;;;4.80;;
19231;SDS011;9750;48.730;10.294;2023-05-07T01:56:03;5.10;;;4.10;;
19231;SDS011;9750;48.730;10.294;2023-05-07T01:58:32;4.00;;;3.60;;
19231;SDS011;9750;48.730;10.294;2023-05-07T02:00:59;4.50;;;3.90;;
19231;SDS011;9750;48.730;10.294;2023-05-07T02:03:27;3.90;;;3.50;;
19231;SDS011;9750;48.730;10.294;2023-05-07T02:05:54;6.20;;;3.60;;
19231;SDS011;9750;48.730;10.294;2023-05-07T02:08:21;5.47;;;4.00;;
19231;SDS011;9750;48.730;10.294;2023-05-07T02:10:48;7.10;;;5.47;;
19231;SDS011;9750;48.730;10.294;2023-05-07T02:13:16;6.67;;;5.37;;
19231;SDS011;9750;48.730;10.294;2023-05-07T02:15:46;6.70;;;5.50;;
19231;SDS011;9750;48.730;10.294;2023-05-07T02:21:26;4.80;;;4.30;;
19231;SDS011;9750;48.730;10.294;2023-05-07T02:23:53;5.67;;;4.73;;
19231;SDS011;9750;48.730;10.294;2023-05-07T02:26:20;4.57;;;4.17;;
19231;SDS011;9750;48.730;10.294;2023-05-07T02:28:47;7.17;;;4.80;;
19231;SDS011;9750;48.730;10.294;2023-05-07T02:31:17;4.53;;;4.10;;
19231;SDS011;9750;48.730;10.294;2023-05-07T02:33:44;5.40;;;4.43;;
19231;SDS011;9750;48.730;10.294;2023-05-07T02:36:12;5.20;;;4.00;;
19231;SDS011;9750;48.730;10.294;2023-05-07T02:38:39;5.43;;;4.00;;
19231;SDS011;9750;48.730;10.294;2023-05-07T02:41:06;4.87;;;4.10;;
19231;SDS011;9750;48.730;10.294;2023-05-07T02:43:33;7.33;;;4.90;;
19231;SDS011;9750;48.730;10.294;2023-05-07T02:46:01;8.13;;;5.93;;
19231;SDS011;9750;48.730;10.294;2023-05-07T02:48:31;8.17;;;5.43;;
19231;SDS011;9750;48.730;10.294;2023-05-07T02:50:58;7.17;;;5.40;;
19231;SDS011;9750;48.730;10.294;2023-05-07T02:53:26;5.37;;;4.87;;
19231;SDS011;9750;48.730;10.294;2023-05-07T02:55:55;5.57;;;5.07;;
19231;SDS011;9750;48.730;10.294;2023-05-07T02:58:39;5.57;;;4.70;;
19231;SDS011;9750;48.730;10.294;2023-05-07T03:01:07;5.23;;;4.73;;
19231;SDS011;9750;48.730;10.294;2023-05-07T03:03:36;5.17;;;4.53;;
19231;SDS011;9750;48.730;10.294;2023-05-07T03:06:03;6.07;;;5.47;;
19231;SDS011;9750;48.730;10.294;2023-05-07T03:08:31;5.80;;;5.23;;
19231;SDS011;9750;48.730;10.294;2023-05-07T03:10:58;6.73;;;5.23;;
19231;SDS011;9750;48.730;10.294;2023-05-07T03:13:26;7.40;;;5.10;;
19231;SDS011;9750;48.730;10.294;2023-05-07T03:15:53;5.60;;;4.70;;
19231;SDS011;9750;48.730;10.294;2023-05-07T03:18:20;5.70;;;4.73;;
19231;SDS011;9750;48.730;10.294;2023-05-07T03:20:49;6.13;;;5.33;;
19231;SDS011;9750;48.730;10.294;2023-05-07T03:23:16;5.73;;;5.03;;
19231;SDS011;9750;48.730;10.294;2023-05-07T03:25:43;5.17;;;4.67;;
19231;SDS011;9750;48.730;10.294;2023-05-07T03:28:11;4.77;;;4.27;;
19231;SDS011;9750;48.730;10.294;2023-05-07T03:30:38;5.13;;;4.67;;
19231;SDS011;9750;48.730;10.294;2023-05-07T03:33:05;5.07;;;4.40;;
19231;SDS011;9750;48.730;10.294;2023-05-07T03:35:33;4.97;;;4.57;;
19231;SDS011;9750;48.730;10.294;2023-05-07T03:38:01;5.37;;;4.17;;
19231;SDS011;9750;48.730;10.294;2023-05-07T03:40:29;4.07;;;3.63;;
19231;SDS011;9750;48.730;10.294;2023-05-07T03:42:56;4.40;;;4.00;;
19231;SDS011;9750;48.730;10.294;2023-05-07T03:45:23;4.77;;;4.10;;
19231;SDS011;9750;48.730;10.294;2023-05-07T03:47:51;4.60;;;4.20;;
19231;SDS011;9750;48.730;10.294;2023-05-07T03:50:18;4.70;;;4.17;;
19231;SDS011;9750;48.730;10.294;2023-05-07T03:52:45;5.00;;;4.50;;
19231;SDS011;9750;48.730;10.294;2023-05-07T03:55:14;5.57;;;4.67;;
19231;SDS011;9750;48.730;10.294;2023-05-07T04:00:54;5.63;;;5.13;;
19231;SDS011;9750;48.730;10.294;2023-05-07T04:03:21;5.20;;;4.80;;
19231;SDS011;9750;48.730;10.294;2023-05-07T04:05:48;5.63;;;5.13;;
19231;SDS011;9750;48.730;10.294;2023-05-07T04:08:15;6.67;;;5.10;;
19231;SDS011;9750;48.730;10.294;2023-05-07T04:10:44;5.47;;;4.97;;
19231;SDS011;9750;48.730;10.294;2023-05-07T04:13:11;6.00;;;4.93;;
19231;SDS011;9750;48.730;10.294;2023-05-07T04:15:39;8.27;;;5.13;;
19231;SDS011;9750;48.730;10.294;2023-05-07T04:18:06;5.40;;;4.90;;
19231;SDS011;9750;48.730;10.294;2023-05-07T04:20:34;6.10;;;5.17;;
19231;SDS011;9750;48.730;10.294;2023-05-07T04:23:02;5.80;;;5.10;;
19231;SDS011;9750;48.730;10.294;2023-05-07T04:25:29;5.33;;;4.37;;
19231;SDS011;9750;48.730;10.294;2023-05-07T04:27:58;4.80;;;4.33;;
19231;SDS011;9750;48.730;10.294;2023-05-07T04:30:25;4.87;;;4.40;;
19231;SDS011;9750;48.730;10.294;2023-05-07T04:32:53;6.27;;;4.40;;
19231;SDS011;9750;48.730;10.294;2023-05-07T04:35:21;4.97;;;4.47;;
19231;SDS011;9750;48.730;10.294;2023-05-07T04:37:48;4.67;;;4.20;;
19231;SDS011;9750;48.730;10.294;2023-05-07T04:40:15;5.97;;;5.47;;
19231;SDS011;9750;48.730;10.294;2023-05-07T04:42:43;5.97;;;4.87;;
19231;SDS011;9750;48.730;10.294;2023-05-07T04:45:12;5.80;;;4.60;;
19231;SDS011;9750;48.730;10.294;2023-05-07T04:47:39;6.87;;;6.17;;
19231;SDS011;9750;48.730;10.294;2023-05-07T04:50:07;5.20;;;4.73;;
19231;SDS011;9750;48.730;10.294;2023-05-07T04:52:35;5.57;;;4.80;;
19231;SDS011;9750;48.730;10.294;2023-05-07T04:55:02;6.67;;;4.90;;
19231;SDS011;9750;48.730;10.294;2023-05-07T05:00:08;5.00;;;4.60;;
19231;SDS011;9750;48.730;10.294;2023-05-07T05:02:38;7.03;;;4.90;;
19231;SDS011;9750;48.730;10.294;2023-05-07T05:05:05;5.23;;;4.33;;
19231;SDS011;9750;48.730;10.294;2023-05-07T05:07:33;6.53;;;4.00;;
19231;SDS011;9750;48.730;10.294;2023-05-07T05:10:01;4.70;;;4.30;;
19231;SDS011;9750;48.730;10.294;2023-05-07T05:12:28;5.73;;;4.20;;
19231;SDS011;9750;48.730;10.294;2023-05-07T05:14:56;3.93;;;3.53;;
19231;SDS011;9750;48.730;10.294;2023-05-07T05:17:23;7.07;;;3.80;;
19231;SDS011;9750;48.730;10.294;2023-05-07T05:19:52;4.13;;;3.73;;
19231;SDS011;9750;48.730;10.294;2023-05-07T05:22:19;6.57;;;4.10;;
19231;SDS011;9750;48.730;10.294;2023-05-07T05:24:46;4.80;;;3.73;;
19231;SDS011;9750;48.730;10.294;2023-05-07T05:27:13;4.67;;;3.57;;
19231;SDS011;9750;48.730;10.294;2023-05-07T05:29:41;5.97;;;5.30;;
19231;SDS011;9750;48.730;10.294;2023-05-07T05:32:08;7.40;;;5.80;;
19231;SDS011;9750;48.730;10.294;2023-05-07T05:34:35;6.00;;;4.50;;
19231;SDS011;9750;48.730;10.294;2023-05-07T05:37:04;4.97;;;4.40;;
19231;SDS011;9750;48.730;10.294;2023-05-07T05:39:31;4.77;;;4.37;;
19231;SDS011;9750;48.730;10.294;2023-05-07T05:41:58;6.17;;;4.53;;
19231;SDS011;9750;48.730;10.294;2023-05-07T05:44:26;4.50;;;4.10;;
19231;SDS011;9750;48.730;10.294;2023-05-07T05:46:53;4.50;;;3.90;;
19231;SDS011;9750;48.730;10.294;2023-05-07T05:49:22;5.07;;;4.10;;
19231;SDS011;9750;48.730;10.294;2023-05-07T05:51:49;5.10;;;4.70;;
19231;SDS011;9750;48.730;10.294;2023-05-07T05:54:18;6.93;;;5.07;;
19231;SDS011;9750;48.730;10.294;2023-05-07T05:56:45;5.87;;;5.27;;
19231;SDS011;9750;48.730;10.294;2023-05-07T05:59:13;6.27;;;5.13;;
19231;SDS011;9750;48.730;10.294;2023-05-07T06:01:40;5.00;;;4.60;;
19231;SDS011;9750;48.730;10.294;2023-05-07T06:04:07;5.80;;;5.30;;
19231;SDS011;9750;48.730;10.294;2023-05-07T06:06:35;5.40;;;4.90;;
19231;SDS011;9750;48.730;10.294;2023-05-07T06:09:02;5.60;;;4.67;;
19231;SDS011;9750;48.730;10.294;2023-05-07T06:11:31;5.60;;;5.07;;
19231;SDS011;9750;48.730;10.294;2023-05-07T06:13:58;5.97;;;5.13;;
19231;SDS011;9750;48.730;10.294;2023-05-07T06:16:26;5.70;;;5.17;;
19231;SDS011;9750;48.730;10.294;2023-05-07T06:18:53;5.73;;;5.23;;
19231;SDS011;9750;48.730;10.294;2023-05-07T06:21:20;6.20;;;5.10;;
19231;SDS011;9750;48.730;10.294;2023-05-07T06:23:48;8.10;;;5.13;;
19231;SDS011;9750;48.730;10.294;2023-05-07T06:26:17;5.87;;;5.23;;
19231;SDS011;9750;48.730;10.294;2023-05-07T06:28:45;5.33;;;4.93;;
19231;SDS011;9750;48.730;10.294;2023-05-07T06:31:13;5.87;;;5.37;;
19231;SDS011;9750;48.730;10.294;2023-05-07T06:33:42;5.53;;;5.03;;
19231;SDS011;9750;48.730;10.294;2023-05-07T06:36:10;5.57;;;5.07;;
19231;SDS011;9750;48.730;10.294;2023-05-07T06:38:37;6.33;;;5.63;;
19231;SDS011;9750;48.730;10.294;2023-05-07T06:41:05;20.07;;;17.97;;
19231;SDS011;9750;48.730;10.294;2023-05-07T06:43:32;11.03;;;9.70;;
19231;SDS011;9750;48.730;10.294;2023-05-07T06:46:01;11.00;;;9.50;;
19231;SDS011;9750;48.730;10.294;2023-05-07T06:48:28;6.23;;;5.63;;
19231;SDS011;9750;48.730;10.294;2023-05-07T06:50:55;5.60;;;5.10;;
19231;SDS011;9750;48.730;10.294;2023-05-07T06:53:23;5.27;;;4.80;;
19231;SDS011;9750;48.730;10.294;2023-05-07T06:55:51;5.73;;;4.87;;
19231;SDS011;9750;48.730;10.294;2023-05-07T06:58:18;5.40;;;4.90;;
19231;SDS011;9750;48.730;10.294;2023-05-07T07:00:45;6.57;;;5.67;;
19231;SDS011;9750;48.730;10.294;2023-05-07T07:03:14;5.90;;;5.30;;
19231;SDS011;9750;48.730;10.294;2023-05-07T07:05:41;5.57;;;5.07;;
19231;SDS011;9750;48.730;10.294;2023-05-07T07:08:09;5.43;;;4.93;;
19231;SDS011;9750;48.730;10.294;2023-05-07T07:10:37;6.63;;;5.80;;
19231;SDS011;9750;48.730;10.294;2023-05-07T07:13:04;6.60;;;5.67;;
19231;SDS011;9750;48.730;10.294;2023-05-07T07:15:32;6.77;;;6.07;;
19231;SDS011;9750;48.730;10.294;2023-05-07T07:17:59;5.43;;;4.93;;
19231;SDS011;9750;48.730;10.294;2023-05-07T07:20:28;8.60;;;5.73;;
19231;SDS011;9750;48.730;10.294;2023-05-07T07:22:55;5.00;;;4.50;;
19231;SDS011;9750;48.730;10.294;2023-05-07T07:25:22;4.37;;;3.97;;
19231;SDS011;9750;48.730;10.294;2023-05-07T07:27:49;4.77;;;3.70;;
19231;SDS011;9750;48.730;10.294;2023-05-07T07:30:17;4.00;;;3.70;;
19231;SDS011;9750;48.730;10.294;2023-05-07T07:32:44;3.80;;;3.40;;
19231;SDS011;9750;48.730;10.294;2023-05-07T07:35:11;3.63;;;3.33;;
19231;SDS011;9750;48.730;10.294;2023-05-07T07:37:40;4.50;;;3.20;;
19231;SDS011;9750;48.730;10.294;2023-05-07T07:40:08;5.07;;;3.40;;
19231;SDS011;9750;48.730;10.294;2023-05-07T07:42:36;3.80;;;3.17;;
19231;SDS011;9750;48.730;10.294;2023-05-07T07:45:03;4.50;;;3.63;;
19231;SDS011;9750;48.730;10.294;2023-05-07T07:47:31;4.63;;;3.40;;
19231;SDS011;9750;48.730;10.294;2023-05-07T07:49:59;3.40;;;3.10;;
19231;SDS011;9750;48.730;10.294;2023-05-07T07:52:26;3.57;;;3.27;;
19231;SDS011;9750;48.730;10.294;2023-05-07T07:54:54;3.47;;;3.17;;
19231;SDS011;9750;48.730;10.294;2023-05-07T07:57:22;3.30;;;2.93;;
19231;SDS011;9750;48.730;10.294;2023-05-07T07:59:49;3.17;;;2.87;;
19231;SDS011;9750;48.730;10.294;2023-05-07T08:02:16;5.27;;;2.87;;
19231;SDS011;9750;48.730;10.294;2023-05-07T08:04:44;3.23;;;3.00;;
19231;SDS011;9750;48.730;10.294;2023-05-07T08:07:11;3.87;;;3.43;;
19231;SDS011;9750;48.730;10.294;2023-05-07T08:09:39;2.83;;;2.63;;
19231;SDS011;9750;48.730;10.294;2023-05-07T08:12:08;3.23;;;2.90;;
19231;SDS011;9750;48.730;10.294;2023-05-07T08:14:35;3.60;;;2.87;;
19231;SDS011;9750;48.730;10.294;2023-05-07T08:17:03;3.10;;;2.80;;
19231;SDS011;9750;48.730;10.294;2023-05-07T08:19:30;3.10;;;2.90;;
19231;SDS011;9750;48.730;10.294;2023-05-07T08:21:57;3.23;;;2.50;;
19231;SDS011;9750;48.730;10.294;2023-05-07T08:24:25;3.40;;;2.90;;
19231;SDS011;9750;48.730;10.294;2023-05-07T08:26:52;4.30;;;3.00;;
19231;SDS011;9750;48.730;10.294;2023-05-07T08:29:21;3.13;;;2.77;;
19231;SDS011;9750;48.730;10.294;2023-05-07T08:31:49;3.57;;;2.70;;
19231;SDS011;9750;48.730;10.294;2023-05-07T08:34:16;3.17;;;2.60;;
19231;SDS011;9750;48.730;10.294;2023-05-07T08:36:43;2.90;;;2.60;;
19231;SDS011;9750;48.730;10.294;2023-05-07T08:39:13;3.60;;;2.87;;
19231;SDS011;9750;48.730;10.294;2023-05-07T08:41:41;4.10;;;2.80;;
19231;SDS011;9750;48.730;10.294;2023-05-07T08:44:11;3.07;;;2.80;;
19231;SDS011;9750;48.730;10.294;2023-05-07T08:46:41;2.60;;;2.40;;
19231;SDS011;9750;48.730;10.294;2023-05-07T08:49:13;3.37;;;3.07;;
19231;SDS011;9750;48.730;10.294;2023-05-07T08:51:41;3.20;;;2.90;;
19231;SDS011;9750;48.730;10.294;2023-05-07T08:54:08;3.27;;;2.97;;
19231;SDS011;9750;48.730;10.294;2023-05-07T08:56:37;3.00;;;2.70;;
19231;SDS011;9750;48.730;10.294;2023-05-07T08:59:05;3.30;;;3.00;;
19231;SDS011;9750;48.730;10.294;2023-05-07T09:01:32;4.43;;;3.25;;
19231;SDS011;9750;48.730;10.294;2023-05-07T09:04:02;3.75;;;2.80;;
19231;SDS011;9750;48.730;10.294;2023-05-07T09:09:16;4.28;;;3.88;;
19231;SDS011;9750;48.730;10.294;2023-05-07T09:11:44;4.22;;;3.45;;
19231;SDS011;9750;48.730;10.294;2023-05-07T09:14:12;4.28;;;3.65;;
19231;SDS011;9750;48.730;10.294;2023-05-07T09:16:39;3.83;;;2.90;;
19231;SDS011;9750;48.730;10.294;2023-05-07T09:19:08;3.20;;;2.90;;
19231;SDS011;9750;48.730;10.294;2023-05-07T09:21:35;3.28;;;2.90;;
19231;SDS011;9750;48.730;10.294;2023-05-07T09:24:03;4.50;;;3.40;;
19231;SDS011;9750;48.730;10.294;2023-05-07T09:26:30;4.18;;;3.75;;
19231;SDS011;9750;48.730;10.294;2023-05-07T09:28:59;3.92;;;3.13;;
19231;SDS011;9750;48.730;10.294;2023-05-07T09:31:26;3.65;;;3.15;;
19231;SDS011;9750;48.730;10.294;2023-05-07T09:33:53;4.65;;;3.10;;
19231;SDS011;9750;48.730;10.294;2023-05-07T09:36:22;3.15;;;2.80;;
19231;SDS011;9750;48.730;10.294;2023-05-07T09:38:50;4.20;;;3.40;;
19231;SDS011;9750;48.730;10.294;2023-05-07T09:41:17;3.47;;;3.10;;
19231;SDS011;9750;48.730;10.294;2023-05-07T09:43:46;3.40;;;3.10;;
19231;SDS011;9750;48.730;10.294;2023-05-07T09:46:19;3.80;;;3.40;;
19231;SDS011;9750;48.730;10.294;2023-05-07T09:48:52;3.33;;;3.00;;
19231;SDS011;9750;48.730;10.294;2023-05-07T09:54:58;2.63;;;2.42;;
19231;SDS011;9750;48.730;10.294;2023-05-07T09:57:28;3.25;;;2.95;;
19231;SDS011;9750;48.730;10.294;2023-05-07T10:00:05;2.70;;;2.50;;
19231;SDS011;9750;48.730;10.294;2023-05-07T10:02:40;3.78;;;2.67;;
19231;SDS011;9750;48.730;10.294;2023-05-07T10:05:13;2.95;;;2.65;;
19231;SDS011;9750;48.730;10.294;2023-05-07T10:07:41;2.63;;;2.20;;
19231;SDS011;9750;48.730;10.294;2023-05-07T10:10:10;2.80;;;2.40;;
19231;SDS011;9750;48.730;10.294;2023-05-07T10:12:38;2.60;;;2.22;;
19231;SDS011;9750;48.730;10.294;2023-05-07T10:15:07;2.50;;;2.30;;
19231;SDS011;9750;48.730;10.294;2023-05-07T10:17:35;2.53;;;2.30;;
19231;SDS011;9750;48.730;10.294;2023-05-07T10:20:03;2.90;;;2.42;;
19231;SDS011;9750;48.730;10.294;2023-05-07T10:22:32;4.78;;;2.55;;
19231;SDS011;9750;48.730;10.294;2023-05-07T10:25:04;3.13;;;2.50;;
19231;SDS011;9750;48.730;10.294;2023-05-07T10:27:37;2.20;;;2.00;;
19231;SDS011;9750;48.730;10.294;2023-05-07T10:30:07;8.10;;;2.38;;
19231;SDS011;9750;48.730;10.294;2023-05-07T10:32:45;2.95;;;2.30;;
19231;SDS011;9750;48.730;10.294;2023-05-07T10:35:16;2.95;;;2.20;;
19231;SDS011;9750;48.730;10.294;2023-05-07T10:37:46;3.75;;;2.05;;
19231;SDS011;9750;48.730;10.294;2023-05-07T10:40:14;2.28;;;2.08;;
19231;SDS011;9750;48.730;10.294;2023-05-07T10:42:56;2.28;;;2.05;;
19231;SDS011;9750;48.730;10.294;2023-05-07T10:45:26;4.18;;;2.10;;
19231;SDS011;9750;48.730;10.294;2023-05-07T10:48:06;2.95;;;2.08;;
19231;SDS011;9750;48.730;10.294;2023-05-07T10:50:38;2.38;;;1.92;;
19231;SDS011;9750;48.730;10.294;2023-05-07T10:53:21;2.28;;;2.08;;
19231;SDS011;9750;48.730;10.294;2023-05-07T10:58:56;3.25;;;2.00;;
19231;SDS011;9750;48.730;10.294;2023-05-07T11:02:08;2.50;;;2.30;;
19231;SDS011;9750;48.730;10.294;2023-05-07T11:04:36;2.22;;;1.98;;
19231;SDS011;9750;48.730;10.294;2023-05-07T11:09:57;2.30;;;2.10;;
19231;SDS011;9750;48.730;10.294;2023-05-07T11:15:15;3.10;;;2.17;;
19231;SDS011;9750;48.730;10.294;2023-05-07T11:17:57;2.50;;;1.70;;
19231;SDS011;9750;48.730;10.294;2023-05-07T11:23:20;2.13;;;1.90;;
19231;SDS011;9750;48.730;10.294;2023-05-07T11:26:27;2.10;;;1.90;;
19231;SDS011;9750;48.730;10.294;2023-05-07T11:28:56;2.53;;;1.92;;
19231;SDS011;9750;48.730;10.294;2023-05-07T11:31:27;2.22;;;2.03;;
19231;SDS011;9750;48.730;10.294;2023-05-07T11:33:55;2.10;;;1.90;;
19231;SDS011;9750;48.730;10.294;2023-05-07T11:36:23;3.00;;;2.15;;
19231;SDS011;9750;48.730;10.294;2023-05-07T11:38:54;2.67;;;2.47;;
19231;SDS011;9750;48.730;10.294;2023-05-07T11:41:32;3.78;;;2.38;;
19231;SDS011;9750;48.730;10.294;2023-05-07T11:44:01;2.70;;;2.20;;
19231;SDS011;9750;48.730;10.294;2023-05-07T11:46:33;2.50;;;2.30;;
19231;SDS011;9750;48.730;10.294;2023-05-07T11:49:03;2.40;;;2.20;;
19231;SDS011;9750;48.730;10.294;2023-05-07T11:51:34;4.32;;;2.20;;
19231;SDS011;9750;48.730;10.294;2023-05-07T11:54:06;2.92;;;2.15;;
19231;SDS011;9750;48.730;10.294;2023-05-07T11:56:36;2.40;;;1.85;;
19231;SDS011;9750;48.730;10.294;2023-05-07T11:59:07;3.33;;;2.10;;
19231;SDS011;9750;48.730;10.294;2023-05-07T12:01:38;3.38;;;2.35;;
19231;SDS011;9750;48.730;10.294;2023-05-07T12:04:05;3.35;;;2.50;;
19231;SDS011;9750;48.730;10.294;2023-05-07T12:06:36;2.67;;;2.13;;
19231;SDS011;9750;48.730;10.294;2023-05-07T12:09:04;2.92;;;2.10;;
19231;SDS011;9750;48.730;10.294;2023-05-07T12:11:32;3.25;;;2.10;;
19231;SDS011;9750;48.730;10.294;2023-05-07T12:14:00;3.30;;;2.50;;
19231;SDS011;9750;48.730;10.294;2023-05-07T12:16:27;3.08;;;2.10;;
19231;SDS011;9750;48.730;10.294;2023-05-07T12:18:58;4.90;;;2.28;;
19231;SDS011;9750;48.730;10.294;2023-05-07T12:21:26;3.20;;;2.20;;
19231;SDS011;9750;48.730;10.294;2023-05-07T12:23:54;2.40;;;2.20;;
19231;SDS011;9750;48.730;10.294;2023-05-07T12:26:24;2.78;;;1.85;;
19231;SDS011;9750;48.730;10.294;2023-05-07T12:28:52;1.88;;;1.73;;
19231;SDS011;9750;48.730;10.294;2023-05-07T12:31:21;2.40;;;2.20;;
19231;SDS011;9750;48.730;10.294;2023-05-07T12:33:48;2.60;;;2.40;;
19231;SDS011;9750;48.730;10.294;2023-05-07T12:36:22;4.20;;;2.50;;
19231;SDS011;9750;48.730;10.294;2023-05-07T12:38:54;2.38;;;2.17;;
19231;SDS011;9750;48.730;10.294;2023-05-07T12:44:25;3.65;;;2.33;;
19231;SDS011;9750;48.730;10.294;2023-05-07T12:46:56;2.40;;;2.20;;
19231;SDS011;9750;48.730;10.294;2023-05-07T12:49:25;3.65;;;2.13;;
19231;SDS011;9750;48.730;10.294;2023-05-07T12:52:00;2.10;;;2.00;;
19231;SDS011;9750;48.730;10.294;2023-05-07T12:54:28;2.20;;;2.10;;
19231;SDS011;9750;48.730;10.294;2023-05-07T12:57:02;2.60;;;2.15;;
19231;SDS011;9750;48.730;10.294;2023-05-07T12:59:31;2.83;;;2.63;;
19231;SDS011;9750;48.730;10.294;2023-05-07T13:02:00;2.38;;;2.17;;
19231;SDS011;9750;48.730;10.294;2023-05-07T13:04:27;2.60;;;2.20;;
19231;SDS011;9750;48.730;10.294;2023-05-07T13:06:56;2.38;;;2.17;;
19231;SDS011;9750;48.730;10.294;2023-05-07T13:09:24;2.65;;;2.33;;
19231;SDS011;9750;48.730;10.294;2023-05-07T13:11:54;2.80;;;2.45;;
19231;SDS011;9750;48.730;10.294;2023-05-07T13:14:22;4.15;;;2.35;;
19231;SDS011;9750;48.730;10.294;2023-05-07T13:16:52;4.78;;;2.30;;
19231;SDS011;9750;48.730;10.294;2023-05-07T13:19:22;3.80;;;3.40;;
19231;SDS011;9750;48.730;10.294;2023-05-07T13:21:54;2.63;;;2.35;;
19231;SDS011;9750;48.730;10.294;2023-05-07T13:24:23;2.60;;;2.20;;
19231;SDS011;9750;48.730;10.294;2023-05-07T13:26:51;4.15;;;2.55;;
19231;SDS011;9750;48.730;10.294;2023-05-07T13:29:18;3.03;;;2.58;;
19231;SDS011;9750;48.730;10.294;2023-05-07T13:31:46;3.88;;;2.65;;
19231;SDS011;9750;48.730;10.294;2023-05-07T13:34:13;4.63;;;3.53;;
19231;SDS011;9750;48.730;10.294;2023-05-07T13:36:40;3.50;;;2.33;;
19231;SDS011;9750;48.730;10.294;2023-05-07T13:39:09;4.03;;;2.45;;
19231;SDS011;9750;48.730;10.294;2023-05-07T13:41:36;2.63;;;2.22;;
19231;SDS011;9750;48.730;10.294;2023-05-07T13:44:04;2.58;;;2.35;;
19231;SDS011;9750;48.730;10.294;2023-05-07T13:46:31;2.95;;;2.10;;
19231;SDS011;9750;48.730;10.294;2023-05-07T13:48:58;2.55;;;2.35;;
19231;SDS011;9750;48.730;10.294;2023-05-07T13:51:26;2.83;;;2.58;;
19231;SDS011;9750;48.730;10.294;2023-05-07T13:53:53;3.80;;;2.38;;
19231;SDS011;9750;48.730;10.294;2023-05-07T13:56:22;3.00;;;2.15;;
19231;SDS011;9750;48.730;10.294;2023-05-07T13:58:49;2.67;;;2.22;;
19231;SDS011;9750;48.730;10.294;2023-05-07T14:01:16;3.03;;;2.10;;
19231;SDS011;9750;48.730;10.294;2023-05-07T14:03:43;2.30;;;2.10;;
19231;SDS011;9750;48.730;10.294;2023-05-07T14:06:11;4.22;;;2.72;;
19231;SDS011;9750;48.730;10.294;2023-05-07T14:08:38;2.67;;;2.30;;
19231;SDS011;9750;48.730;10.294;2023-05-07T14:11:05;2.50;;;2.30;;
19231;SDS011;9750;48.730;10.294;2023-05-07T14:13:34;3.00;;;2.20;;
19231;SDS011;9750;48.730;10.294;2023-05-07T14:16:03;3.03;;;2.15;;
19231;SDS011;9750;48.730;10.294;2023-05-07T14:18:31;2.78;;;2.28;;
19231;SDS011;9750;48.730;10.294;2023-05-07T14:21:00;2.60;;;2.22;;
19231;SDS011;9750;48.730;10.294;2023-05-07T14:23:27;4.35;;;2.40;;
19231;SDS011;9750;48.730;10.294;2023-05-07T14:25:54;2.08;;;1.98;;
19231;SDS011;9750;48.730;10.294;2023-05-07T14:28:22;2.20;;;2.00;;
19231;SDS011;9750;48.730;10.294;2023-05-07T14:30:51;3.45;;;2.28;;
19231;SDS011;9750;48.730;10.294;2023-05-07T14:33:18;3.25;;;2.47;;
19231;SDS011;9750;48.730;10.294;2023-05-07T14:35:45;3.58;;;2.30;;
19231;SDS011;9750;48.730;10.294;2023-05-07T14:38:14;2.10;;;2.00;;
19231;SDS011;9750;48.730;10.294;2023-05-07T14:40:41;3.00;;;2.40;;
19231;SDS011;9750;48.730;10.294;2023-05-07T14:43:09;2.90;;;2.60;;
19231;SDS011;9750;48.730;10.294;2023-05-07T14:45:36;2.50;;;2.30;;
19231;SDS011;9750;48.730;10.294;2023-05-07T14:48:05;3.30;;;2.28;;
19231;SDS011;9750;48.730;10.294;2023-05-07T14:50:34;2.28;;;2.00;;
19231;SDS011;9750;48.730;10.294;2023-05-07T14:53:01;2.60;;;2.40;;
19231;SDS011;9750;48.730;10.294;2023-05-07T14:55:29;2.50;;;2.22;;
19231;SDS011;9750;48.730;10.294;2023-05-07T14:57:56;2.42;;;2.22;;
19231;SDS011;9750;48.730;10.294;2023-05-07T15:00:23;3.83;;;2.35;;
19231;SDS011;9750;48.730;10.294;2023-05-07T15:02:50;3.42;;;3.13;;
19231;SDS011;9750;48.730;10.294;2023-05-07T15:05:19;3.63;;;2.85;;
19231;SDS011;9750;48.730;10.294;2023-05-07T15:07:46;2.67;;;2.47;;
19231;SDS011;9750;48.730;10.294;2023-05-07T15:10:14;5.32;;;2.67;;
19231;SDS011;9750;48.730;10.294;2023-05-07T15:12:41;3.63;;;3.13;;
19231;SDS011;9750;48.730;10.294;2023-05-07T15:15:09;3.45;;;2.53;;
19231;SDS011;9750;48.730;10.294;2023-05-07T15:17:37;2.53;;;2.30;;
19231;SDS011;9750;48.730;10.294;2023-05-07T15:20:04;2.85;;;2.22;;
19231;SDS011;9750;48.730;10.294;2023-05-07T15:22:35;2.40;;;2.20;;
19231;SDS011;9750;48.730;10.294;2023-05-07T15:25:03;4.25;;;2.38;;
19231;SDS011;9750;48.730;10.294;2023-05-07T15:27:38;2.70;;;2.50;;
19231;SDS011;9750;48.730;10.294;2023-05-07T15:30:06;2.67;;;2.47;;
19231;SDS011;9750;48.730;10.294;2023-05-07T15:32:35;2.60;;;2.40;;